createdAt,value
2018-12-09T00:00:55.211Z,97.55
2018-12-09T00:02:05.375Z,97.74
2018-12-09T00:03:15.514Z,97.08
2018-12-09T00:04:25.644Z,97.74
2018-12-09T00:05:35.830Z,97.08
2018-12-09T00:06:45.997Z,97.27
2018-12-09T00:07:56.225Z,97.17
2018-12-09T00:09:06.581Z,98.03
2018-12-09T00:10:16.701Z,98.03
2018-12-09T00:11:26.607Z,97.83
2018-12-09T00:12:36.752Z,97.64
2018-12-09T00:13:46.912Z,97.17
2018-12-09T00:14:57.065Z,97.83
2018-12-09T00:16:07.216Z,97.41
2018-12-09T00:17:17.363Z,97.6
2018-12-09T00:18:27.476Z,96.98
2018-12-09T00:19:37.601Z,96.98
2018-12-09T00:20:47.702Z,97.27
2018-12-09T00:21:57.816Z,97.27
2018-12-09T00:23:07.994Z,97.22
2018-12-09T00:24:18.097Z,97.27
2018-12-09T00:25:28.272Z,97.22
2018-12-09T00:26:38.400Z,97.41
2018-12-09T00:27:48.607Z,97.03
2018-12-09T00:28:58.735Z,96.46
2018-12-09T00:30:08.868Z,96.55
2018-12-09T00:31:19.050Z,96.46
2018-12-09T00:32:29.194Z,96.36
2018-12-09T00:33:39.064Z,96.36
2018-12-09T00:34:49.203Z,96.17
2018-12-09T00:35:59.322Z,96.17
2018-12-09T00:37:09.472Z,95.6
2018-12-09T00:38:19.612Z,95.79
2018-12-09T00:39:29.730Z,95.41
2018-12-09T00:40:39.843Z,95.41
2018-12-09T00:41:49.955Z,95.32
2018-12-09T00:43:00.080Z,95.41
2018-12-09T00:44:10.193Z,95.32
2018-12-09T00:45:20.341Z,95.51
2018-12-09T00:46:30.470Z,95.32
2018-12-09T00:47:40.625Z,95.51
2018-12-09T00:48:50.780Z,95.51
2018-12-09T00:50:00.929Z,95.41
2018-12-09T00:51:11.073Z,95.22
2018-12-09T00:52:21.191Z,95.41
2018-12-09T00:53:31.322Z,95.79
2018-12-09T00:54:41.472Z,95.32
2018-12-09T00:55:51.609Z,95.41
2018-12-09T00:57:01.743Z,95.7
2018-12-09T00:58:11.904Z,95.12
2018-12-09T00:59:22.052Z,95.89
2018-12-09T01:00:32.177Z,95.51
2018-12-09T01:01:42.310Z,95.51
2018-12-09T01:02:52.419Z,95.51
2018-12-09T01:04:02.650Z,95.98
2018-12-09T01:05:12.785Z,95.32
2018-12-09T01:06:22.931Z,95.6
2018-12-09T01:07:33.060Z,95.89
2018-12-09T01:08:43.191Z,95.79
2018-12-09T01:09:53.317Z,95.89
2018-12-09T01:11:03.435Z,96.46
2018-12-09T01:12:13.542Z,96.08
2018-12-09T01:13:23.673Z,96.08
2018-12-09T01:14:33.790Z,95.98
2018-12-09T01:15:43.925Z,96.08
2018-12-09T01:16:54.024Z,96.26
2018-12-09T01:18:04.161Z,96.17
2018-12-09T01:19:14.319Z,95.98
2018-12-09T01:20:24.456Z,96.26
2018-12-09T01:21:34.548Z,96.26
2018-12-09T01:22:44.669Z,96.08
2018-12-09T01:23:54.808Z,96.08
2018-12-09T01:25:05.390Z,96.36
2018-12-09T01:26:16.208Z,96.26
2018-12-09T01:27:26.424Z,96.55
2018-12-09T01:28:36.563Z,95.98
2018-12-09T01:29:46.689Z,96.94
2018-12-09T01:30:56.805Z,97.03
2018-12-09T01:32:06.915Z,96.74
2018-12-09T01:33:16.779Z,96.26
2018-12-09T01:34:27.033Z,96.36
2018-12-09T01:35:37.160Z,96.36
2018-12-09T01:36:47.287Z,96.08
2018-12-09T01:37:57.099Z,96.26
2018-12-09T01:39:07.222Z,96.08
2018-12-09T01:40:17.348Z,96.17
2018-12-09T01:41:27.503Z,96.46
2018-12-09T01:42:37.672Z,95.7
2018-12-09T01:43:47.790Z,95.79
2018-12-09T01:44:57.965Z,95.89
2018-12-09T01:46:08.111Z,95.51
2018-12-09T01:47:18.491Z,95.51
2018-12-09T01:48:29.172Z,95.51
2018-12-09T01:49:39.821Z,95.41
2018-12-09T01:50:50.071Z,95.32
2018-12-09T01:51:59.899Z,94.84
2018-12-09T01:53:09.802Z,95.12
2018-12-09T01:54:20.062Z,94.74
2018-12-09T01:55:30.252Z,95.12
2018-12-09T01:56:40.360Z,94.65
2018-12-09T01:57:50.504Z,94.65
2018-12-09T01:59:00.619Z,94.08
2018-12-09T02:00:10.781Z,94.18
2018-12-09T02:01:20.905Z,93.98
2018-12-09T02:02:31.051Z,94.08
2018-12-09T02:03:41.179Z,93.7
2018-12-09T02:04:51.320Z,94.03
2018-12-09T02:06:01.457Z,94.08
2018-12-09T02:07:11.585Z,93.46
2018-12-09T02:08:21.734Z,93.18
2018-12-09T02:09:32.161Z,93.37
2018-12-09T02:10:42.779Z,93.18
2018-12-09T02:11:53.493Z,92.89
2018-12-09T02:13:03.830Z,92.89
2018-12-09T02:14:13.993Z,92.99
2018-12-09T02:15:24.125Z,92.7
2018-12-09T02:16:34.255Z,93.18
2018-12-09T02:17:44.383Z,92.79
2018-12-09T02:18:54.510Z,92.79
2018-12-09T02:20:04.639Z,92.79
2018-12-09T02:21:14.783Z,92.99
2018-12-09T02:22:25.020Z,92.79
2018-12-09T02:23:35.142Z,92.79
2018-12-09T02:24:45.291Z,93.18
2018-12-09T02:25:55.660Z,92.99
2018-12-09T02:27:05.781Z,92.89
2018-12-09T02:28:15.898Z,92.99
2018-12-09T02:29:25.775Z,93.27
2018-12-09T02:30:35.899Z,93.08
2018-12-09T02:31:46.040Z,92.89
2018-12-09T02:32:56.987Z,93.37
2018-12-09T02:34:07.657Z,92.99
2018-12-09T02:35:18.065Z,93.27
2018-12-09T02:36:28.215Z,93.18
2018-12-09T02:37:38.369Z,93.18
2018-12-09T02:38:48.488Z,93.18
2018-12-09T02:39:58.601Z,93.18
2018-12-09T02:41:08.892Z,92.89
2018-12-09T02:42:19.035Z,92.99
2018-12-09T02:43:29.282Z,92.89
2018-12-09T02:44:39.459Z,93.18
2018-12-09T02:45:49.584Z,92.99
2018-12-09T02:46:59.715Z,92.79
2018-12-09T02:48:09.885Z,92.99
2018-12-09T02:49:19.771Z,92.89
2018-12-09T02:50:29.878Z,92.32
2018-12-09T02:51:40.011Z,92.41
2018-12-09T02:52:50.143Z,92.51
2018-12-09T02:54:00.264Z,92.79
2018-12-09T02:55:10.474Z,92.41
2018-12-09T02:56:21.321Z,92.41
2018-12-09T02:57:31.988Z,92.13
2018-12-09T02:58:42.245Z,92.22
2018-12-09T02:59:52.404Z,91.65
2018-12-09T03:01:02.553Z,92.03
2018-12-09T03:02:12.695Z,92.03
2018-12-09T03:03:22.964Z,91.84
2018-12-09T03:04:33.107Z,91.17
2018-12-09T03:05:43.239Z,91.27
2018-12-09T03:06:53.392Z,91.46
2018-12-09T03:08:03.531Z,91.08
2018-12-09T03:09:13.635Z,90.51
2018-12-09T03:10:23.778Z,90.13
2018-12-09T03:11:33.929Z,90.42
2018-12-09T03:12:44.076Z,90.32
2018-12-09T03:13:54.205Z,90.13
2018-12-09T03:15:04.389Z,89.75
2018-12-09T03:16:14.626Z,89.65
2018-12-09T03:17:24.871Z,89.75
2018-12-09T03:18:35.335Z,89.08
2018-12-09T03:19:46.015Z,89.08
2018-12-09T03:20:56.657Z,89.18
2018-12-09T03:22:06.670Z,89.18
2018-12-09T03:23:16.778Z,89.37
2018-12-09T03:24:26.904Z,88.99
2018-12-09T03:25:37.037Z,89.08
2018-12-09T03:26:47.177Z,88.7
2018-12-09T03:27:58.150Z,88.79
2018-12-09T03:29:08.301Z,88.79
2018-12-09T03:30:18.753Z,88.51
2018-12-09T03:31:28.942Z,88.7
2018-12-09T03:32:39.093Z,88.32
2018-12-09T03:33:49.242Z,88.6
2018-12-09T03:34:59.359Z,88.42
2018-12-09T03:36:09.472Z,88.32
2018-12-09T03:37:19.343Z,87.85
2018-12-09T03:38:29.453Z,87.94
2018-12-09T03:39:39.567Z,88.42
2018-12-09T03:40:49.708Z,88.51
2018-12-09T03:41:59.828Z,88.6
2018-12-09T03:43:10.172Z,87.75
2018-12-09T03:44:20.739Z,88.32
2018-12-09T03:45:31.231Z,88.7
2018-12-09T03:46:41.500Z,88.7
2018-12-09T03:47:51.613Z,87.46
2018-12-09T03:49:01.733Z,87.75
2018-12-09T03:50:11.853Z,87.75
2018-12-09T03:51:21.990Z,87.56
2018-12-09T03:52:32.101Z,87.46
2018-12-09T03:53:42.290Z,87.75
2018-12-09T03:54:52.420Z,87.56
2018-12-09T03:56:02.567Z,87.46
2018-12-09T03:57:12.425Z,87.56
2018-12-09T03:58:22.537Z,87.65
2018-12-09T03:59:32.661Z,87.18
2018-12-09T04:00:42.875Z,87.75
2018-12-09T04:01:52.984Z,87.56
2018-12-09T04:03:03.104Z,88.23
2018-12-09T04:04:13.245Z,87.94
2018-12-09T04:05:23.113Z,87.94
2018-12-09T04:06:33.236Z,88.6
2018-12-09T04:07:43.476Z,88.23
2018-12-09T04:08:53.809Z,88.04
2018-12-09T04:10:04.557Z,88.42
2018-12-09T04:11:15.303Z,88.42
2018-12-09T04:12:25.549Z,88.99
2018-12-09T04:13:35.678Z,88.79
2018-12-09T04:14:45.808Z,88.79
2018-12-09T04:15:55.692Z,88.6
2018-12-09T04:17:05.577Z,89.37
2018-12-09T04:18:15.549Z,89.47
2018-12-09T04:19:25.793Z,88.79
2018-12-09T04:20:35.973Z,89.23
2018-12-09T04:21:46.131Z,89.23
2018-12-09T04:22:56.290Z,89.51
2018-12-09T04:24:06.260Z,89.32
2018-12-09T04:25:16.397Z,89.7
2018-12-09T04:26:26.518Z,89.61
2018-12-09T04:27:36.383Z,89.51
2018-12-09T04:28:46.530Z,90.56
2018-12-09T04:29:56.771Z,90.08
2018-12-09T04:31:06.882Z,90.28
2018-12-09T04:32:17.018Z,90.08
2018-12-09T04:33:27.158Z,90.08
2018-12-09T04:34:37.992Z,90.08
2018-12-09T04:35:48.634Z,90.47
2018-12-09T04:36:59.136Z,90.37
2018-12-09T04:38:09.261Z,90.37
2018-12-09T04:39:19.388Z,90.75
2018-12-09T04:40:29.506Z,90.56
2018-12-09T04:41:39.635Z,90.66
2018-12-09T04:42:49.870Z,90.47
2018-12-09T04:43:59.999Z,90.66
2018-12-09T04:45:09.863Z,90.94
2018-12-09T04:46:19.977Z,90.75
2018-12-09T04:47:30.136Z,90.37
2018-12-09T04:48:40.292Z,90.84
2018-12-09T04:49:50.403Z,90.47
2018-12-09T04:51:00.547Z,91.22
2018-12-09T04:52:10.681Z,90.84
2018-12-09T04:53:20.837Z,91.13
2018-12-09T04:54:30.942Z,91.13
2018-12-09T04:55:41.068Z,91.13
2018-12-09T04:56:50.833Z,91.13
2018-12-09T04:58:01.052Z,90.94
2018-12-09T04:59:11.564Z,91.22
2018-12-09T05:00:22.306Z,91.32
2018-12-09T05:01:32.620Z,91.89
2018-12-09T05:02:43.957Z,91.89
2018-12-09T05:03:54.077Z,91.89
2018-12-09T05:05:03.951Z,91.7
2018-12-09T05:06:14.104Z,91.7
2018-12-09T05:07:24.228Z,91.42
2018-12-09T05:08:34.361Z,92.08
2018-12-09T05:09:44.476Z,91.7
2018-12-09T05:10:54.577Z,91.7
2018-12-09T05:12:04.688Z,91.61
2018-12-09T05:13:14.815Z,91.61
2018-12-09T05:14:24.940Z,91.61
2018-12-09T05:15:35.069Z,91.8
2018-12-09T05:16:45.211Z,91.8
2018-12-09T05:17:55.326Z,91.8
2018-12-09T05:19:05.475Z,91.89
2018-12-09T05:20:15.607Z,91.8
2018-12-09T05:21:25.730Z,91.7
2018-12-09T05:22:35.899Z,91.89
2018-12-09T05:23:46.227Z,91.99
2018-12-09T05:24:56.998Z,91.8
2018-12-09T05:26:07.843Z,91.89
2018-12-09T05:27:18.311Z,91.99
2018-12-09T05:28:28.597Z,92.27
2018-12-09T05:29:38.827Z,92.08
2018-12-09T05:30:48.943Z,92.46
2018-12-09T05:31:59.072Z,92.27
2018-12-09T05:33:09.215Z,92.27
2018-12-09T05:34:19.351Z,92.46
2018-12-09T05:35:29.475Z,91.99
2018-12-09T05:36:39.614Z,92.46
2018-12-09T05:37:49.755Z,92.36
2018-12-09T05:38:59.874Z,92.18
2018-12-09T05:40:11.906Z,92.18
2018-12-09T05:41:22.170Z,92.08
2018-12-09T05:42:32.277Z,92.08
2018-12-09T05:43:42.026Z,92.84
2018-12-09T05:44:52.133Z,93.13
2018-12-09T05:46:02.261Z,93.04
2018-12-09T05:47:13.912Z,93.04
2018-12-09T05:48:24.059Z,93.13
2018-12-09T05:49:33.991Z,92.84
2018-12-09T05:50:44.676Z,92.94
2018-12-09T05:51:55.306Z,92.94
2018-12-09T05:53:05.821Z,92.08
2018-12-09T05:54:15.951Z,92.08
2018-12-09T05:55:25.833Z,92.27
2018-12-09T05:56:35.956Z,92.27
2018-12-09T05:57:47.263Z,92.46
2018-12-09T05:58:57.376Z,92.46
2018-12-09T06:00:07.522Z,92.46
2018-12-09T06:01:17.376Z,92.56
2018-12-09T06:02:27.236Z,92.27
2018-12-09T06:03:37.498Z,91.89
2018-12-09T06:04:47.616Z,91.99
2018-12-09T06:05:57.689Z,91.89
2018-12-09T06:07:07.808Z,91.99
2018-12-09T06:08:18.023Z,91.42
2018-12-09T06:09:28.160Z,91.99
2018-12-09T06:10:38.278Z,91.22
2018-12-09T06:11:48.424Z,91.13
2018-12-09T06:12:58.536Z,91.03
2018-12-09T06:14:08.966Z,91.22
2018-12-09T06:15:19.081Z,91.03
2018-12-09T06:16:29.539Z,91.22
2018-12-09T06:17:39.820Z,90.94
2018-12-09T06:18:50.349Z,91.03
2018-12-09T06:20:00.888Z,90.84
2018-12-09T06:21:10.998Z,90.84
2018-12-09T06:22:21.147Z,90.56
2018-12-09T06:23:31.276Z,90.18
2018-12-09T06:24:41.415Z,90.37
2018-12-09T06:25:51.540Z,90.08
2018-12-09T06:27:01.648Z,90.37
2018-12-09T06:28:11.771Z,90.18
2018-12-09T06:29:21.889Z,90.47
2018-12-09T06:30:32.011Z,90.47
2018-12-09T06:31:42.136Z,90.18
2018-12-09T06:32:52.247Z,90.18
2018-12-09T06:34:02.377Z,90.18
2018-12-09T06:35:12.506Z,89.99
2018-12-09T06:36:22.675Z,89.7
2018-12-09T06:37:32.813Z,89.8
2018-12-09T06:38:42.957Z,89.8
2018-12-09T06:39:53.196Z,90.08
2018-12-09T06:41:03.316Z,89.99
2018-12-09T06:42:13.453Z,89.32
2018-12-09T06:43:23.972Z,89.89
2018-12-09T06:44:34.740Z,89.8
2018-12-09T06:45:45.318Z,89.8
2018-12-09T06:46:55.730Z,89.89
2018-12-09T06:48:05.850Z,89.47
2018-12-09T06:49:15.457Z,89.42
2018-12-09T06:50:25.310Z,89.37
2018-12-09T06:51:35.426Z,89.23
2018-12-09T06:52:45.546Z,89.23
2018-12-09T06:53:55.680Z,89.47
2018-12-09T06:55:05.812Z,89.37
2018-12-09T06:56:15.952Z,89.47
2018-12-09T06:57:25.837Z,89.42
2018-12-09T06:58:35.973Z,89.56
2018-12-09T06:59:46.107Z,89.56
2018-12-09T07:00:56.245Z,89.42
2018-12-09T07:02:06.366Z,89.27
2018-12-09T07:03:16.484Z,89.84
2018-12-09T07:04:26.345Z,89.27
2018-12-09T07:05:36.218Z,89.47
2018-12-09T07:06:46.355Z,89.75
2018-12-09T07:07:56.483Z,90.13
2018-12-09T07:09:06.609Z,90.42
2018-12-09T07:10:16.756Z,90.22
2018-12-09T07:11:26.870Z,90.8
2018-12-09T07:12:36.991Z,90.8
2018-12-09T07:13:47.463Z,91.08
2018-12-09T07:14:57.675Z,92.03
2018-12-09T07:16:07.903Z,91.75
2018-12-09T07:17:18.336Z,92.51
2018-12-09T07:18:28.206Z,92.56
2018-12-09T07:19:38.326Z,93.04
2018-12-09T07:20:48.448Z,92.94
2018-12-09T07:21:58.575Z,92.99
2018-12-09T07:23:08.455Z,93.08
2018-12-09T07:24:18.578Z,93.32
2018-12-09T07:25:28.694Z,93.98
2018-12-09T07:26:38.800Z,93.6
2018-12-09T07:27:48.937Z,94.27
2018-12-09T07:28:59.071Z,94.46
2018-12-09T07:30:09.254Z,94.46
2018-12-09T07:31:19.398Z,94.37
2018-12-09T07:32:29.509Z,95.22
2018-12-09T07:33:39.629Z,95.22
2018-12-09T07:34:49.763Z,95.6
2018-12-09T07:35:59.889Z,94.74
2018-12-09T07:37:10.016Z,94.56
2018-12-09T07:38:19.871Z,95.22
2018-12-09T07:39:29.999Z,94.65
2018-12-09T07:40:40.126Z,95.03
2018-12-09T07:41:49.999Z,95.7
2018-12-09T07:43:01.130Z,94.84
2018-12-09T07:44:11.765Z,95.6
2018-12-09T07:45:22.542Z,95.7
2018-12-09T07:46:32.773Z,95.51
2018-12-09T07:47:43.041Z,94.93
2018-12-09T07:48:53.171Z,95.6
2018-12-09T07:50:03.277Z,95.51
2018-12-09T07:51:13.464Z,94.93
2018-12-09T07:52:23.591Z,95.03
2018-12-09T07:53:33.471Z,95.7
2018-12-09T07:54:43.594Z,95.7
2018-12-09T07:55:53.706Z,94.93
2018-12-09T07:57:03.798Z,95.22
2018-12-09T07:58:13.699Z,95.41
2018-12-09T07:59:23.561Z,95.22
2018-12-09T08:00:33.682Z,95.12
2018-12-09T08:01:44.002Z,95.51
2018-12-09T08:02:54.127Z,95.12
2018-12-09T08:04:04.062Z,95.22
2018-12-09T08:05:14.165Z,95.32
2018-12-09T08:06:24.347Z,95.12
2018-12-09T08:07:34.472Z,95.6
2018-12-09T08:08:44.608Z,95.32
2018-12-09T08:09:54.714Z,95.41
2018-12-09T08:11:04.849Z,95.51
2018-12-09T08:12:14.952Z,95.51
2018-12-09T08:13:25.056Z,95.41
2018-12-09T08:14:35.184Z,95.41
2018-12-09T08:15:45.301Z,95.51
2018-12-09T08:16:55.414Z,95.41
2018-12-09T08:18:05.519Z,95.98
2018-12-09T08:19:15.382Z,95.41
2018-12-09T08:20:25.531Z,95.56
2018-12-09T08:21:35.650Z,95.41
2018-12-09T08:22:45.781Z,95.56
2018-12-09T08:23:55.893Z,95.51
2018-12-09T08:25:06.020Z,95.56
2018-12-09T08:26:16.134Z,95.84
2018-12-09T08:27:26.279Z,95.27
2018-12-09T08:28:36.400Z,95.75
2018-12-09T08:29:46.520Z,95.56
2018-12-09T08:30:58.336Z,95.65
2018-12-09T08:32:08.446Z,95.65
2018-12-09T08:33:18.808Z,95.75
2018-12-09T08:34:28.688Z,95.65
2018-12-09T08:35:38.815Z,95.94
2018-12-09T08:36:48.955Z,95.75
2018-12-09T08:37:59.086Z,95.27
2018-12-09T08:39:09.239Z,95.65
2018-12-09T08:40:19.415Z,95.36
2018-12-09T08:41:29.535Z,95.46
2018-12-09T08:42:39.714Z,95.56
2018-12-09T08:43:49.866Z,95.36
2018-12-09T08:45:00.006Z,94.6
2018-12-09T08:46:10.100Z,94.32
2018-12-09T08:47:20.229Z,93.27
2018-12-09T08:48:30.352Z,92.6
2018-12-09T08:49:40.505Z,93.37
2018-12-09T08:50:50.635Z,93.37
2018-12-09T08:52:00.392Z,93.55
2018-12-09T08:53:10.507Z,92.27
2018-12-09T08:54:20.637Z,91.89
2018-12-09T08:55:30.773Z,91.89
2018-12-09T08:56:40.911Z,91.94
2018-12-09T08:57:51.030Z,91.99
2018-12-09T08:59:01.159Z,91.22
2018-12-09T09:00:11.300Z,91.8
2018-12-09T09:01:21.437Z,91.7
2018-12-09T09:02:31.587Z,91.32
2018-12-09T09:03:41.714Z,91.27
2018-12-09T09:04:51.846Z,91.17
2018-12-09T09:06:01.711Z,90.99
2018-12-09T09:07:11.328Z,90.89
2018-12-09T09:08:21.523Z,90.75
2018-12-09T09:09:31.678Z,91.22
2018-12-09T09:10:41.822Z,91.08
2018-12-09T09:11:52.167Z,91.08
2018-12-09T09:13:02.321Z,91.22
2018-12-09T09:14:12.482Z,91.17
2018-12-09T09:15:22.246Z,91.13
2018-12-09T09:16:32.044Z,91.13
2018-12-09T09:17:42.184Z,91.27
2018-12-09T09:18:52.326Z,91.22
2018-12-09T09:20:02.492Z,91.22
2018-12-09T09:21:12.653Z,91.27
2018-12-09T09:22:22.783Z,91.22
2018-12-09T09:23:32.932Z,91.13
2018-12-09T09:24:43.061Z,91.99
2018-12-09T09:25:53.436Z,91.89
2018-12-09T09:27:03.570Z,91.7
2018-12-09T09:28:13.720Z,91.8
2018-12-09T09:29:23.864Z,91.8
2018-12-09T09:30:34.038Z,91.8
2018-12-09T09:31:44.221Z,91.61
2018-12-09T09:32:54.366Z,92.08
2018-12-09T09:34:04.548Z,91.99
2018-12-09T09:35:14.671Z,91.99
2018-12-09T09:36:24.819Z,91.61
2018-12-09T09:37:34.945Z,92.08
2018-12-09T09:38:45.077Z,92.27
2018-12-09T09:39:55.204Z,92.08
2018-12-09T09:41:05.355Z,92.27
2018-12-09T09:42:15.243Z,92.46
2018-12-09T09:43:25.469Z,91.8
2018-12-09T09:44:35.258Z,92.46
2018-12-09T09:45:46.505Z,92.65
2018-12-09T09:46:56.645Z,91.94
2018-12-09T09:48:06.929Z,92.36
2018-12-09T09:49:17.103Z,92.08
2018-12-09T09:50:27.292Z,91.89
2018-12-09T09:51:37.441Z,92.27
2018-12-09T09:52:47.607Z,92.56
2018-12-09T09:53:57.767Z,92.46
2018-12-09T09:55:07.882Z,91.89
2018-12-09T09:56:18.032Z,91.99
2018-12-09T09:57:28.186Z,91.99
2018-12-09T09:58:38.384Z,92.18
2018-12-09T09:59:48.520Z,92.08
2018-12-09T10:00:58.675Z,92.27
2018-12-09T10:02:08.699Z,92.18
2018-12-09T10:03:25.652Z,91.89
2018-12-09T10:04:35.961Z,92.08
2018-12-09T10:05:46.115Z,91.42
2018-12-09T10:06:56.249Z,91.61
2018-12-09T10:08:06.424Z,91.7
2018-12-09T10:09:16.615Z,91.7
2018-12-09T10:10:26.730Z,91.42
2018-12-09T10:11:36.873Z,92.08
2018-12-09T10:12:47.027Z,91.99
2018-12-09T10:13:57.189Z,91.8
2018-12-09T10:15:07.394Z,91.42
2018-12-09T10:16:17.535Z,91.89
2018-12-09T10:17:27.402Z,91.7
2018-12-09T10:18:37.374Z,91.13
2018-12-09T10:19:47.543Z,91.89
2018-12-09T10:20:57.912Z,91.61
2018-12-09T10:22:08.083Z,91.89
2018-12-09T10:23:18.688Z,91.99
2018-12-09T10:24:28.851Z,91.61
2018-12-09T10:25:39.014Z,91.89
2018-12-09T10:26:49.161Z,92.36
2018-12-09T10:27:59.305Z,92.46
2018-12-09T10:29:09.462Z,92.46
2018-12-09T10:30:19.363Z,91.89
2018-12-09T10:31:29.261Z,91.51
2018-12-09T10:32:39.290Z,91.8
2018-12-09T10:33:49.595Z,92.08
2018-12-09T10:34:59.940Z,91.8
2018-12-09T10:36:09.711Z,91.89
2018-12-09T10:37:19.860Z,92.08
2018-12-09T10:38:30.048Z,92.18
2018-12-09T10:39:40.235Z,91.99
2018-12-09T10:40:50.505Z,91.8
2018-12-09T10:42:00.662Z,92.27
2018-12-09T10:43:10.818Z,92.36
2018-12-09T10:44:20.956Z,92.36
2018-12-09T10:45:31.102Z,92.36
2018-12-09T10:46:41.354Z,92.84
2018-12-09T10:47:51.511Z,92.75
2018-12-09T10:49:01.458Z,92.94
2018-12-09T10:50:11.781Z,92.94
2018-12-09T10:51:21.942Z,92.75
2018-12-09T10:52:32.106Z,92.94
2018-12-09T10:53:42.965Z,92.75
2018-12-09T10:54:53.154Z,92.94
2018-12-09T10:56:03.340Z,92.84
2018-12-09T10:57:13.508Z,92.94
2018-12-09T10:58:23.687Z,92.84
2018-12-09T10:59:33.826Z,92.65
2018-12-09T11:00:43.984Z,92.08
2018-12-09T11:01:54.119Z,92.65
2018-12-09T11:03:04.268Z,91.89
2018-12-09T11:04:14.422Z,91.13
2018-12-09T11:05:24.583Z,91.27
2018-12-09T11:06:34.785Z,90.99
2018-12-09T11:07:44.921Z,91.46
2018-12-09T11:08:55.051Z,90.42
2018-12-09T11:10:05.192Z,89.56
2018-12-09T11:11:15.322Z,89.32
2018-12-09T11:12:25.448Z,88.84
2018-12-09T11:13:35.645Z,88.46
2018-12-09T11:14:45.828Z,88.46
2018-12-09T11:15:56.001Z,88.12
2018-12-09T11:17:08.190Z,87.84
2018-12-09T11:18:18.333Z,87.84
2018-12-09T11:19:28.488Z,87.36
2018-12-09T11:20:38.718Z,86.6
2018-12-09T11:21:48.881Z,86.41
2018-12-09T11:22:59.068Z,85.55
2018-12-09T11:24:09.213Z,85.55
2018-12-09T11:25:19.364Z,85.74
2018-12-09T11:26:29.524Z,84.69
2018-12-09T11:27:39.680Z,85.17
2018-12-09T11:28:49.924Z,85.36
2018-12-09T11:30:00.087Z,85.46
2018-12-09T11:31:10.271Z,85.36
2018-12-09T11:32:20.426Z,85.64
2018-12-09T11:33:30.620Z,85.64
2018-12-09T11:34:40.751Z,85.84
2018-12-09T11:35:50.910Z,85.27
2018-12-09T11:37:01.183Z,85.17
2018-12-09T11:38:11.459Z,84.88
2018-12-09T11:39:21.675Z,84.55
2018-12-09T11:40:31.943Z,84.16
2018-12-09T11:41:42.093Z,83.97
2018-12-09T11:42:52.245Z,83.5
2018-12-09T11:44:02.394Z,83.06
2018-12-09T11:45:12.552Z,83.25
2018-12-09T11:46:22.731Z,81.63
2018-12-09T11:47:32.910Z,81.15
2018-12-09T11:48:43.067Z,80.87
2018-12-09T11:49:53.218Z,80.49
2018-12-09T11:51:03.381Z,80.87
2018-12-09T11:52:13.588Z,80.77
2018-12-09T11:53:23.752Z,81.15
2018-12-09T11:54:33.922Z,81.15
2018-12-09T11:55:44.083Z,81.15
2018-12-09T11:56:54.283Z,80.58
2018-12-09T11:58:04.486Z,80.2
2018-12-09T11:59:14.659Z,80.68
2018-12-09T12:00:24.817Z,80.77
2018-12-09T12:01:34.994Z,80.58
2018-12-09T12:02:45.142Z,80.96
2018-12-09T12:03:55.327Z,81.06
2018-12-09T12:05:05.548Z,81.3
2018-12-09T12:06:15.714Z,81.12
2018-12-09T12:07:25.851Z,81.3
2018-12-09T12:08:36.007Z,80.92
2018-12-09T12:09:46.192Z,80.54
2018-12-09T12:10:56.429Z,80.83
2018-12-09T12:12:06.834Z,81.12
2018-12-09T12:13:16.993Z,81.12
2018-12-09T12:14:27.134Z,81.02
2018-12-09T12:15:37.291Z,81.12
2018-12-09T12:16:47.427Z,81.46
2018-12-09T12:17:57.618Z,81.26
2018-12-09T12:19:07.784Z,81.55
2018-12-09T12:20:17.940Z,81.26
2018-12-09T12:21:28.038Z,81.65
2018-12-09T12:22:38.228Z,81.46
2018-12-09T12:23:48.397Z,81.36
2018-12-09T12:24:58.555Z,81.36
2018-12-09T12:26:08.767Z,81.65
2018-12-09T12:27:18.985Z,82.03
2018-12-09T12:28:29.448Z,82.31
2018-12-09T12:29:39.602Z,82.03
2018-12-09T12:30:50.028Z,82.21
2018-12-09T12:31:59.927Z,82.41
2018-12-09T12:33:10.113Z,82.41
2018-12-09T12:34:20.299Z,82.31
2018-12-09T12:35:30.491Z,82.12
2018-12-09T12:36:40.677Z,82.69
2018-12-09T12:37:50.845Z,83.22
2018-12-09T12:39:01.021Z,83.22
2018-12-09T12:40:11.209Z,82.65
2018-12-09T12:41:21.374Z,82.46
2018-12-09T12:42:31.534Z,83.13
2018-12-09T12:43:41.692Z,82.75
2018-12-09T12:44:51.918Z,83.32
2018-12-09T12:46:02.081Z,83.03
2018-12-09T12:47:12.246Z,82.93
2018-12-09T12:48:22.461Z,83.13
2018-12-09T12:49:32.634Z,83.22
2018-12-09T12:50:42.849Z,83.41
2018-12-09T12:51:53.022Z,83.7
2018-12-09T12:53:03.190Z,83.32
2018-12-09T12:54:13.347Z,83.32
2018-12-09T12:55:23.551Z,83.98
2018-12-09T12:56:33.715Z,84.17
2018-12-09T12:57:43.878Z,84.08
2018-12-09T12:58:54.067Z,84.17
2018-12-09T13:00:04.246Z,84.08
2018-12-09T13:01:14.419Z,84.08
2018-12-09T13:02:24.306Z,84.46
2018-12-09T13:03:34.440Z,84.46
2018-12-09T13:04:44.345Z,84.27
2018-12-09T13:05:54.509Z,84.56
2018-12-09T13:07:04.685Z,84.46
2018-12-09T13:08:14.860Z,84.56
2018-12-09T13:09:25.654Z,84.75
2018-12-09T13:10:35.580Z,84.65
2018-12-09T13:11:46.003Z,84.75
2018-12-09T13:12:56.201Z,84.65
2018-12-09T13:14:06.141Z,84.84
2018-12-09T13:15:16.332Z,84.84
2018-12-09T13:16:26.536Z,84.46
2018-12-09T13:17:36.719Z,84.94
2018-12-09T13:18:46.868Z,85.03
2018-12-09T13:19:57.048Z,85.22
2018-12-09T13:21:07.249Z,84.84
2018-12-09T13:22:17.431Z,85.51
2018-12-09T13:23:27.610Z,85.6
2018-12-09T13:24:37.806Z,85.8
2018-12-09T13:25:47.993Z,85.6
2018-12-09T13:26:58.166Z,85.6
2018-12-09T13:28:08.321Z,85.51
2018-12-09T13:29:18.226Z,85.6
2018-12-09T13:30:28.419Z,85.6
2018-12-09T13:31:38.623Z,85.51
2018-12-09T13:35:18.729Z,85.7
2018-12-09T13:36:28.921Z,85.6
2018-12-09T13:37:39.141Z,85.8
2018-12-09T13:38:49.301Z,85.7
2018-12-09T13:39:59.511Z,85.8
2018-12-09T13:41:11.165Z,85.8
2018-12-09T13:42:21.450Z,85.41
2018-12-09T13:43:31.593Z,85.6
2018-12-09T13:44:41.782Z,85.7
2018-12-09T13:45:51.949Z,85.6
2018-12-09T13:47:02.129Z,85.41
2018-12-09T13:48:12.324Z,85.6
2018-12-09T13:49:22.515Z,85.6
2018-12-09T13:50:32.683Z,85.51
2018-12-09T13:51:42.871Z,85.32
2018-12-09T13:52:53.072Z,85.6
2018-12-09T13:54:03.253Z,85.7
2018-12-09T13:55:13.461Z,85.51
2018-12-09T13:56:23.887Z,85.51
2018-12-09T13:57:34.086Z,85.7
2018-12-09T13:58:44.255Z,85.51
2018-12-09T13:59:54.414Z,85.8
2018-12-09T14:01:04.587Z,85.99
2018-12-09T14:02:14.760Z,85.8
2018-12-09T14:03:24.915Z,85.8
2018-12-09T14:04:35.089Z,86.18
2018-12-09T14:05:45.288Z,85.89
2018-12-09T14:06:55.696Z,86.55
2018-12-09T14:08:05.547Z,86.27
2018-12-09T14:09:15.715Z,86.27
2018-12-09T14:10:25.617Z,86.36
2018-12-09T14:11:35.755Z,86.36
2018-12-09T14:12:45.907Z,86.36
2018-12-09T14:13:56.064Z,86.46
2018-12-09T14:15:06.236Z,86.55
2018-12-09T14:16:16.408Z,86.65
2018-12-09T14:17:26.644Z,86.65
2018-12-09T14:18:38.387Z,86.65
2018-12-09T14:19:48.707Z,86.75
2018-12-09T14:20:58.879Z,87.03
2018-12-09T14:22:09.232Z,87.32
2018-12-09T14:23:21.238Z,87.32
2018-12-09T14:24:31.538Z,87.32
2018-12-09T14:25:41.723Z,86.9
2018-12-09T14:26:51.880Z,86.8
2018-12-09T14:28:02.082Z,86.9
2018-12-09T14:29:11.999Z,87.08
2018-12-09T14:30:22.298Z,87.08
2018-12-09T14:31:34.044Z,86.9
2018-12-09T14:32:44.316Z,87.08
2018-12-09T14:33:54.469Z,87.08
2018-12-09T14:35:04.746Z,87.18
2018-12-09T14:36:14.908Z,87.37
2018-12-09T14:37:25.168Z,86.9
2018-12-09T14:38:35.344Z,86.61
2018-12-09T14:39:45.528Z,87.37
2018-12-09T14:40:55.715Z,87.37
2018-12-09T14:42:05.938Z,86.8
2018-12-09T14:43:16.114Z,87.37
2018-12-09T14:44:26.284Z,87.37
2018-12-09T14:45:37.231Z,87.56
2018-12-09T14:46:54.614Z,86.61
2018-12-09T14:48:04.556Z,87.08
2018-12-09T14:49:14.794Z,87.56
2018-12-09T14:50:24.707Z,86.61
2018-12-09T14:51:34.882Z,86.9
2018-12-09T14:52:45.073Z,87.08
2018-12-09T14:53:55.220Z,87.18
2018-12-09T14:55:05.375Z,86.8
2018-12-09T14:56:15.991Z,86.7
2018-12-09T14:57:26.146Z,86.7
2018-12-09T14:58:36.315Z,86.61
2018-12-09T14:59:46.514Z,86.8
2018-12-09T15:00:56.670Z,86.61
2018-12-09T15:02:06.861Z,86.42
2018-12-09T15:03:17.642Z,86.61
2018-12-09T15:04:28.498Z,86.8
2018-12-09T15:05:38.433Z,87.08
2018-12-09T15:06:48.614Z,86.8
2018-12-09T15:07:58.798Z,87.08
2018-12-09T15:09:08.984Z,87.37
2018-12-09T15:10:19.164Z,87.85